Time;durP1;ratioP1;P1;durP2;ratioP2;P2;SDS_P1;SDS_P2;PMS_P1;PMS_P2;Temp;Humidity;BMP_temperature;BMP_pressure;BME280_temperature;BME280_humidity;BME280_pressure;Samples;Min_cycle;Max_cycle;Signal;HPM_P1;HPM_P2
2023/01/19 00:00:01;;;;;;;10.98;7.80;;;;;;;-0.93;100.00;99450.53;700385;28;1550;-68
2023/01/19 00:00:21;;;;;;;10.47;7.63;;;;;;;-0.94;100.00;99451.34;700800;28;1483;-67
2023/01/19 00:00:42;;;;;;;10.98;7.93;;;;;;;-0.95;100.00;99452.19;701017;28;4308;-66
2023/01/19 00:01:02;;;;;;;11.80;8.47;;;;;;;-0.96;100.00;99450.47;700178;28;1064;-66
2023/01/19 00:01:24;;;;;;;13.75;8.15;;;;;;;-0.87;100.00;99451.53;698345;28;1289;-66
2023/01/19 00:01:44;;;;;;;11.60;7.63;;;;;;;-0.84;100.00;99458.44;698741;28;1221;-66
2023/01/19 00:02:04;;;;;;;11.93;7.85;;;;;;;-0.86;100.00;99450.69;696899;28;1301;-67
2023/01/19 00:02:25;;;;;;;11.20;7.83;;;;;;;-0.88;100.00;99454.91;698706;28;1265;-67
2023/01/19 00:02:46;;;;;;;11.18;7.63;;;;;;;-0.86;100.00;99457.50;698800;28;1289;-68
2023/01/19 00:03:14;;;;;;;11.45;7.85;;;;;;;-0.77;100.00;99452.59;698855;28;1436;-67
2023/01/19 00:03:35;;;;;;;11.45;8.02;;;;;;;-0.81;100.00;99453.34;699738;28;1396;-68
2023/01/19 00:03:56;;;;;;;10.70;7.68;;;;;;;-0.83;100.00;99455.03;700540;28;4488;-67
2023/01/19 00:04:17;;;;;;;11.00;7.68;;;;;;;-0.87;100.00;99448.97;698971;28;1510;-67
2023/01/19 00:04:37;;;;;;;11.10;7.90;;;;;;;-0.88;100.00;99460.03;695606;28;1437;-67
2023/01/19 00:04:58;;;;;;;11.63;7.90;;;;;;;-0.91;100.00;99454.00;694316;28;1993;-66
2023/01/19 00:05:18;;;;;;;12.60;8.20;;;;;;;-0.90;100.00;99453.16;693333;28;2113;-66
2023/01/19 00:05:39;;;;;;;12.15;7.85;;;;;;;-0.81;100.00;99461.06;692585;28;1439;-68
2023/01/19 00:06:04;;;;;;;12.40;7.80;;;;;;;-0.78;100.00;99460.25;691644;28;1357;-68
2023/01/19 00:06:25;;;;;;;11.40;8.30;;;;;;;-0.69;100.00;99456.19;692231;28;2169;-65
2023/01/19 00:06:45;;;;;;;11.55;8.35;;;;;;;-0.72;100.00;99456.13;694709;28;4589;-68
2023/01/19 00:07:08;;;;;;;12.63;8.30;;;;;;;-0.75;100.00;99458.63;695351;28;1239;-68
2023/01/19 00:07:30;;;;;;;13.27;8.10;;;;;;;-0.73;100.00;99453.53;696601;28;1293;-67
2023/01/19 00:07:50;;;;;;;12.15;8.32;;;;;;;-0.74;100.00;99450.09;698263;28;1356;-68
2023/01/19 00:08:14;;;;;;;11.17;7.77;;;;;;;-0.76;100.00;99456.91;697914;28;1186;-67
2023/01/19 00:08:35;;;;;;;11.85;8.13;;;;;;;-0.78;100.00;99453.41;698323;28;1330;-68
2023/01/19 00:08:55;;;;;;;11.07;8.03;;;;;;;-0.72;100.00;99448.44;700797;28;1332;-68
2023/01/19 00:09:16;;;;;;;11.73;8.18;;;;;;;-0.70;100.00;99449.31;700443;28;1166;-68
2023/01/19 00:09:37;;;;;;;11.20;7.80;;;;;;;-0.72;100.00;99452.69;701516;28;1340;-67
2023/01/19 00:09:58;;;;;;;11.02;7.97;;;;;;;-0.72;100.00;99451.00;699683;28;4872;-68
2023/01/19 00:10:18;;;;;;;11.43;8.07;;;;;;;-0.75;100.00;99450.06;701055;28;1332;-67
2023/01/19 00:10:43;;;;;;;11.95;7.78;;;;;;;-0.72;100.00;99448.44;701588;28;1439;-67
2023/01/19 00:11:04;;;;;;;11.95;8.10;;;;;;;-0.67;100.00;99452.78;698109;28;1238;-68
2023/01/19 00:11:24;;;;;;;11.40;8.10;;;;;;;-0.63;100.00;99449.47;695979;28;1262;-66
2023/01/19 00:11:44;;;;;;;11.00;7.70;;;;;;;-0.61;100.00;99451.22;695661;28;1139;-68
2023/01/19 00:12:05;;;;;;;11.57;8.07;;;;;;;-0.61;100.00;99452.91;693251;28;1581;-67
2023/01/19 00:12:25;;;;;;;13.07;8.13;;;;;;;-0.58;100.00;99450.41;690889;28;1321;-68
2023/01/19 00:12:46;;;;;;;12.23;7.95;;;;;;;-0.51;100.00;99444.59;689889;28;4366;-68
2023/01/19 00:13:06;;;;;;;13.17;7.90;;;;;;;-0.56;100.00;99451.31;692198;28;1235;-68
2023/01/19 00:13:27;;;;;;;13.13;8.17;;;;;;;-0.61;100.00;99445.22;694246;28;1196;-68
2023/01/19 00:13:50;;;;;;;12.17;7.67;;;;;;;-0.64;100.00;99450.28;693069;28;1235;-68
2023/01/19 00:14:11;;;;;;;12.10;7.85;;;;;;;-0.70;100.00;99446.75;696348;28;1654;-67
2023/01/19 00:14:31;;;;;;;11.23;8.33;;;;;;;-0.59;100.00;99451.25;698717;28;1273;-68
2023/01/19 00:14:52;;;;;;;11.95;7.78;;;;;;;-0.55;100.00;99442.78;698781;28;1317;-68
2023/01/19 00:15:12;;;;;;;12.07;8.00;;;;;;;-0.57;100.00;99445.31;698304;28;1442;-68
2023/01/19 00:15:32;;;;;;;11.90;8.30;;;;;;;-0.61;100.00;99442.63;695941;28;1561;-66
2023/01/19 00:15:53;;;;;;;11.40;7.70;;;;;;;-0.64;100.00;99447.72;696291;28;4483;-65
2023/01/19 00:16:16;;;;;;;11.63;7.68;;;;;;;-0.69;100.00;99451.06;697767;28;1229;-68
2023/01/19 00:16:36;;;;;;;11.93;7.95;;;;;;;-0.66;100.00;99449.41;697827;28;1411;-67
2023/01/19 00:16:57;;;;;;;12.57;8.37;;;;;;;-0.67;100.00;99442.53;697278;28;1914;-68
2023/01/19 00:17:17;;;;;;;11.77;8.10;;;;;;;-0.64;100.00;99452.84;698136;28;1272;-68
2023/01/19 00:17:39;;;;;;;11.07;8.23;;;;;;;-0.56;100.00;99451.31;701550;28;1427;-68
2023/01/19 00:18:00;;;;;;;10.90;8.00;;;;;;;-0.57;100.00;99450.47;700449;28;1411;-67
2023/01/19 00:18:20;;;;;;;11.80;8.10;;;;;;;-0.57;100.00;99452.13;701038;28;1162;-68
2023/01/19 00:18:40;;;;;;;10.75;8.10;;;;;;;-0.60;100.00;99446.94;700737;28;4528;-68
2023/01/19 00:19:01;;;;;;;11.60;7.90;;;;;;;-0.63;100.00;99447.75;700786;28;1380;-67
2023/01/19 00:19:21;;;;;;;11.77;7.90;;;;;;;-0.66;100.00;99449.41;699890;28;1503;-66
2023/01/19 00:19:42;;;;;;;10.83;8.23;;;;;;;-0.68;100.00;99451.91;701287;28;1503;-67
2023/01/19 00:20:03;;;;;;;10.77;8.07;;;;;;;-0.71;100.00;99447.59;699710;28;3752;-66
2023/01/19 00:20:25;;;;;;;11.83;8.10;;;;;;;-0.65;100.00;99452.00;701167;28;1320;-66
2023/01/19 00:20:46;;;;;;;11.52;8.07;;;;;;;-0.68;100.00;99451.91;700263;28;1134;-67
2023/01/19 00:21:07;;;;;;;10.20;7.70;;;;;;;-0.65;100.00;99446.88;700996;28;1161;-68
2023/01/19 00:21:27;;;;;;;12.13;8.40;;;;;;;-0.66;100.00;99447.69;700449;28;1043;-67
2023/01/19 00:21:47;;;;;;;12.37;8.10;;;;;;;-0.67;100.00;99452.78;700171;28;4607;-68
2023/01/19 00:22:08;;;;;;;12.70;8.30;;;;;;;-0.70;100.00;99449.31;700366;28;1044;-68
2023/01/19 00:22:28;;;;;;;12.00;8.50;;;;;;;-0.71;100.00;99450.16;695320;28;1373;-69
2023/01/19 00:22:49;;;;;;;11.65;8.52;;;;;;;-0.73;100.00;99449.25;695837;28;1214;-68
2023/01/19 00:23:10;;;;;;;11.55;8.18;;;;;;;-0.74;100.00;99449.22;692509;28;1107;-67
2023/01/19 00:23:30;;;;;;;11.83;8.10;;;;;;;-0.72;100.00;99458.69;692622;28;1150;-67
2023/01/19 00:23:51;;;;;;;12.25;8.55;;;;;;;-0.71;100.00;99452.75;692495;28;1084;-66
2023/01/19 00:24:12;;;;;;;11.85;8.07;;;;;;;-0.61;100.00;99452.91;693015;28;1073;-67
2023/01/19 00:24:33;;;;;;;12.50;8.23;;;;;;;-0.60;100.00;99450.38;698305;28;1229;-68
2023/01/19 00:24:54;;;;;;;12.75;8.65;;;;;;;-0.60;100.00;99452.94;698248;28;4371;-66
2023/01/19 00:25:14;;;;;;;11.67;8.30;;;;;;;-0.57;100.00;99454.72;700844;28;1193;-66
2023/01/19 00:25:41;;;;;;;12.10;8.10;;;;;;;-0.60;100.00;99450.38;701218;28;1083;-68
2023/01/19 00:26:01;;;;;;;11.98;8.25;;;;;;;-0.63;100.00;99447.75;700596;28;1317;-67
2023/01/19 00:26:21;;;;;;;11.23;8.60;;;;;;;-0.64;100.00;99463.97;698505;28;1471;-66
2023/01/19 00:26:42;;;;;;;11.20;8.65;;;;;;;-0.66;100.00;99454.53;698565;28;1562;-68
2023/01/19 00:27:02;;;;;;;11.47;7.97;;;;;;;-0.69;100.00;99455.34;697033;28;1155;-68
2023/01/19 00:27:23;;;;;;;11.27;8.32;;;;;;;-0.71;100.00;99457.88;698638;28;1130;-66
2023/01/19 00:27:48;;;;;;;11.75;8.27;;;;;;;-0.72;100.00;99460.38;697766;28;4354;-67
2023/01/19 00:28:14;;;;;;;13.23;8.70;;;;;;;-0.72;100.00;99452.69;698079;28;1214;-69
2023/01/19 00:28:34;;;;;;;12.00;8.30;;;;;;;-0.73;100.00;99454.38;697701;28;1238;-68
2023/01/19 00:28:55;;;;;;;11.93;8.20;;;;;;;-0.73;100.00;99450.97;698411;28;1293;-68
2023/01/19 00:29:15;;;;;;;11.20;8.55;;;;;;;-0.74;100.00;99465.47;695709;28;1277;-67
2023/01/19 00:29:36;;;;;;;11.40;8.57;;;;;;;-0.75;100.00;99456.06;695928;28;1293;-68
2023/01/19 00:29:56;;;;;;;11.27;8.07;;;;;;;-0.73;100.00;99456.97;693764;28;1426;-68
2023/01/19 00:30:17;;;;;;;11.13;7.97;;;;;;;-0.72;100.00;99456.13;693263;28;1203;-68
2023/01/19 00:30:38;;;;;;;12.70;8.13;;;;;;;-0.64;100.00;99451.13;691828;28;5229;-65
2023/01/19 00:30:58;;;;;;;12.35;8.00;;;;;;;-0.65;100.00;99454.56;692737;28;1305;-67
2023/01/19 00:31:20;;;;;;;11.68;7.80;;;;;;;-0.67;100.00;99450.22;694724;28;1440;-67
2023/01/19 00:31:40;;;;;;;11.07;7.80;;;;;;;-0.69;100.00;99452.75;695767;28;1310;-67
2023/01/19 00:32:02;;;;;;;11.75;7.90;;;;;;;-0.71;100.00;99454.41;695983;28;1186;-68
2023/01/19 00:32:23;;;;;;;12.75;7.82;;;;;;;-0.71;100.00;99457.88;698463;28;1060;-68
2023/01/19 00:32:45;;;;;;;11.40;8.00;;;;;;;-0.58;100.00;99456.41;698244;28;1160;-68
2023/01/19 00:33:06;;;;;;;10.57;7.95;;;;;;;-0.56;100.00;99457.31;696341;28;1191;-67
2023/01/19 00:33:27;;;;;;;11.93;8.15;;;;;;;-0.56;100.00;99459.00;698652;28;1234;-68
2023/01/19 00:33:48;;;;;;;12.30;8.27;;;;;;;-0.55;100.00;99459.03;698000;28;4386;-68
2023/01/19 00:34:08;;;;;;;12.13;8.10;;;;;;;-0.57;100.00;99454.72;694273;28;1279;-67
2023/01/19 00:34:41;;;;;;;12.63;8.47;;;;;;;-0.60;100.00;99457.22;695157;28;1288;-68
2023/01/19 00:35:01;;;;;;;16.23;8.60;;;;;;;-0.61;100.00;99458.94;696008;28;1222;-68
2023/01/19 00:35:22;;;;;;;11.63;8.50;;;;;;;-0.59;100.00;99459.81;695973;28;1282;-67
2023/01/19 00:35:43;;;;;;;11.13;8.50;;;;;;;-0.61;100.00;99458.03;696580;28;1317;-67
2023/01/19 00:36:03;;;;;;;11.27;8.23;;;;;;;-0.61;100.00;99452.91;697821;28;1087;-68
2023/01/19 00:36:24;;;;;;;11.57;8.48;;;;;;;-0.62;100.00;99456.31;698832;28;1265;-68
2023/01/19 00:36:44;;;;;;;12.13;8.07;;;;;;;-0.65;100.00;99448.53;697641;28;4434;-68
2023/01/19 00:37:06;;;;;;;13.23;8.30;;;;;;;-0.65;100.00;99451.09;697303;28;1971;-68
2023/01/19 00:37:26;;;;;;;11.77;7.97;;;;;;;-0.66;100.00;99451.97;701716;28;1241;-68
2023/01/19 00:37:47;;;;;;;11.47;8.00;;;;;;;-0.66;100.00;99449.41;701463;28;1415;-68
2023/01/19 00:38:08;;;;;;;11.50;8.30;;;;;;;-0.67;100.00;99447.66;698520;28;1059;-66
2023/01/19 00:38:28;;;;;;;11.82;8.65;;;;;;;-0.70;100.00;99444.19;697896;28;1329;-67
2023/01/19 00:38:48;;;;;;;10.70;8.37;;;;;;;-0.71;100.00;99445.03;698332;28;5233;-67
2023/01/19 00:39:09;;;;;;;10.53;7.97;;;;;;;-0.72;100.00;99451.00;697312;28;1077;-69
2023/01/19 00:39:29;;;;;;;10.98;7.80;;;;;;;-0.73;100.00;99448.41;695653;28;1274;-67
2023/01/19 00:39:49;;;;;;;11.93;7.90;;;;;;;-0.68;100.00;99451.91;695317;28;4412;-66
2023/01/19 00:40:11;;;;;;;12.25;8.10;;;;;;;-0.64;100.00;99447.72;697929;28;1233;-66
2023/01/19 00:40:32;;;;;;;11.52;8.50;;;;;;;-0.67;100.00;99450.22;698092;28;1261;-68
2023/01/19 00:40:52;;;;;;;10.87;8.07;;;;;;;-0.65;100.00;99454.56;695714;28;1848;-64
2023/01/19 00:41:12;;;;;;;10.03;7.70;;;;;;;-0.57;100.00;99450.47;695375;28;1081;-68
2023/01/19 00:43:08;;;;;;;11.73;8.00;;;;;;;-0.59;100.00;99456.38;686388;28;4930;-66
2023/01/19 00:43:28;;;;;;;12.70;8.13;;;;;;;-0.56;100.00;99453.88;688628;28;1362;-68
2023/01/19 00:43:49;;;;;;;11.88;7.75;;;;;;;-0.48;100.00;99444.63;689001;28;1208;-67
2023/01/19 00:44:10;;;;;;;10.73;7.77;;;;;;;-0.44;100.00;99445.56;688009;28;1140;-67
2023/01/19 00:44:31;;;;;;;11.82;7.90;;;;;;;-0.48;100.00;99456.63;687663;28;1342;-68
2023/01/19 00:44:51;;;;;;;12.40;8.10;;;;;;;-0.53;100.00;99452.25;688848;28;1255;-67
2023/01/19 00:45:17;;;;;;;12.73;8.23;;;;;;;-0.56;100.00;99446.19;686819;28;1114;-68
2023/01/19 00:45:37;;;;;;;11.80;8.10;;;;;;;-0.61;100.00;99453.78;687048;28;4542;-66
2023/01/19 00:45:58;;;;;;;12.60;8.17;;;;;;;-0.59;100.00;99446.13;694081;28;1126;-67
2023/01/19 00:46:18;;;;;;;11.57;7.73;;;;;;;-0.51;100.00;99449.72;697900;28;1197;-66
2023/01/19 00:46:39;;;;;;;11.60;8.20;;;;;;;-0.52;100.00;99453.09;696223;28;1250;-66
2023/01/19 00:46:59;;;;;;;11.50;7.83;;;;;;;-0.48;100.00;99452.34;697357;28;1316;-68
2023/01/19 00:47:20;;;;;;;12.27;8.35;;;;;;;-0.43;100.00;99447.28;697865;28;1274;-67
2023/01/19 00:47:41;;;;;;;10.90;8.10;;;;;;;-0.43;100.00;99457.56;701494;28;1194;-67
2023/01/19 00:48:01;;;;;;;11.93;8.30;;;;;;;-0.46;100.00;99444.66;699936;28;1274;-67
2023/01/19 00:48:22;;;;;;;12.93;8.17;;;;;;;-0.39;100.00;99454.22;698325;28;1680;-67
2023/01/19 00:48:43;;;;;;;10.57;7.80;;;;;;;-0.41;100.00;99450.78;697921;28;4526;-68
2023/01/19 00:49:04;;;;;;;11.00;8.10;;;;;;;-0.38;100.00;99449.09;695212;28;1341;-68
2023/01/19 00:49:25;;;;;;;11.10;8.10;;;;;;;-0.42;100.00;99454.16;695073;28;1368;-66
2023/01/19 00:49:45;;;;;;;11.07;7.90;;;;;;;-0.41;100.00;99449.06;695494;28;1403;-68
2023/01/19 00:50:13;;;;;;;12.20;8.10;;;;;;;-0.43;100.00;99447.28;695816;28;1043;-67
2023/01/19 00:50:33;;;;;;;12.48;7.80;;;;;;;-0.44;100.00;99451.56;696874;28;1280;-68
2023/01/19 00:50:54;;;;;;;11.52;7.78;;;;;;;-0.44;100.00;99451.56;699519;28;1241;-68
2023/01/19 00:51:14;;;;;;;10.10;7.60;;;;;;;-0.45;100.00;99452.38;699807;28;1260;-68
2023/01/19 00:51:34;;;;;;;10.50;7.90;;;;;;;-0.47;100.00;99451.50;700443;28;1125;-66
2023/01/19 00:51:55;;;;;;;11.40;7.97;;;;;;;-0.41;100.00;99451.63;700745;28;4798;-66
2023/01/19 00:52:15;;;;;;;11.20;7.85;;;;;;;-0.36;100.00;99447.44;701209;28;1491;-68
2023/01/19 00:52:36;;;;;;;12.60;8.07;;;;;;;-0.24;100.00;99449.38;698734;28;1417;-68
2023/01/19 00:52:59;;;;;;;11.85;8.18;;;;;;;-0.22;100.00;99452.84;692695;28;1370;-67
2023/01/19 00:53:20;;;;;;;12.13;8.00;;;;;;;-0.28;100.00;99454.44;690470;28;1132;-66
2023/01/19 00:53:40;;;;;;;11.37;7.73;;;;;;;-0.33;100.00;99448.34;689946;28;1171;-67
2023/01/19 00:54:03;;;;;;;11.13;7.77;;;;;;;-0.26;100.00;99450.22;690408;28;1103;-66
2023/01/19 00:54:24;;;;;;;12.88;8.15;;;;;;;-0.27;100.00;99444.19;690710;28;1096;-68
2023/01/19 00:54:44;;;;;;;11.03;7.83;;;;;;;-0.22;100.00;99452.00;692895;28;4631;-67
2023/01/19 00:55:06;;;;;;;11.30;7.60;;;;;;;-0.20;100.00;99446.03;695576;28;1056;-65
2023/01/19 00:55:29;;;;;;;11.13;7.93;;;;;;;-0.23;100.00;99451.13;698518;28;1261;-66
2023/01/19 00:55:50;;;;;;;11.50;7.80;;;;;;;-0.23;100.00;99452.84;699797;28;1316;-67
2023/01/19 00:56:10;;;;;;;11.70;7.70;;;;;;;-0.28;100.00;99451.88;697956;28;1174;-67
2023/01/19 00:56:31;;;;;;;11.17;7.73;;;;;;;-0.35;100.00;99451.75;698700;28;1272;-66
2023/01/19 00:56:51;;;;;;;12.25;8.25;;;;;;;-0.37;100.00;99455.97;695769;28;1906;-68
2023/01/19 00:57:11;;;;;;;13.10;8.80;;;;;;;-0.31;100.00;99454.38;693045;28;1155;-68
2023/01/19 00:57:32;;;;;;;12.83;8.47;;;;;;;-0.20;100.00;99450.31;694562;28;1488;-66
2023/01/19 00:57:53;;;;;;;11.13;7.70;;;;;;;-0.16;100.00;99452.09;692994;28;4371;-65
2023/01/19 00:58:13;;;;;;;11.10;7.65;;;;;;;-0.08;100.00;99452.25;695299;28;1082;-67
2023/01/19 00:58:33;;;;;;;11.57;7.97;;;;;;;-0.07;100.00;99457.44;696052;28;1420;-66
2023/01/19 00:58:54;;;;;;;10.77;7.53;;;;;;;-0.02;100.00;99453.22;698713;28;1242;-67
2023/01/19 00:59:14;;;;;;;11.30;7.80;;;;;;;-0.05;100.00;99454.88;700383;28;1184;-68
2023/01/19 00:59:34;;;;;;;10.40;7.82;;;;;;;-0.08;100.00;99453.13;699370;28;1217;-66
2023/01/19 00:59:55;;;;;;;10.63;7.93;;;;;;;-0.14;100.00;99455.56;699087;28;1316;-65
2023/01/19 01:00:18;;;;;;;10.00;7.47;;;;;;;-0.21;100.00;99453.72;698785;28;1257;-65
2023/01/19 01:00:38;;;;;;;11.15;7.80;;;;;;;-0.21;100.00;99446.00;697772;28;4323;-68
2023/01/19 01:01:02;;;;;;;11.73;7.90;;;;;;;-0.26;100.00;99453.63;698432;28;1269;-64
2023/01/19 01:01:22;;;;;;;10.82;7.88;;;;;;;-0.30;100.00;99449.28;699324;28;1368;-67
2023/01/19 01:01:42;;;;;;;11.23;7.87;;;;;;;-0.34;100.00;99447.47;699383;28;1207;-66
2023/01/19 01:02:03;;;;;;;11.10;7.70;;;;;;;-0.29;100.00;99445.00;700410;28;1042;-66
2023/01/19 01:02:23;;;;;;;10.70;7.80;;;;;;;-0.30;100.00;99448.41;697708;28;1614;-66
2023/01/19 01:02:44;;;;;;;11.37;7.73;;;;;;;-0.24;100.00;99446.81;694242;28;1378;-68
2023/01/19 01:03:04;;;;;;;9.47;7.37;;;;;;;-0.22;100.00;99455.44;694703;28;1071;-66
2023/01/19 01:03:26;;;;;;;11.83;7.97;;;;;;;-0.27;100.00;99451.88;695574;28;1297;-67
2023/01/19 01:03:47;;;;;;;12.63;8.35;;;;;;;-0.22;100.00;99446.88;694938;28;4595;-68
2023/01/19 01:04:07;;;;;;;11.93;7.97;;;;;;;-0.22;100.00;99449.44;695139;28;1055;-66
2023/01/19 01:04:27;;;;;;;11.88;7.95;;;;;;;-0.18;100.00;99446.06;698885;28;1313;-68
2023/01/19 01:04:53;;;;;;;12.10;8.03;;;;;;;-0.23;100.00;99445.13;700010;28;1206;-66
2023/01/19 01:05:14;;;;;;;11.98;8.15;;;;;;;-0.30;100.00;99443.28;700350;28;1261;-66
2023/01/19 01:05:34;;;;;;;11.07;7.88;;;;;;;-0.35;100.00;99444.06;697849;28;1392;-67
2023/01/19 01:05:55;;;;;;;11.17;7.90;;;;;;;-0.39;100.00;99439.69;698252;28;1300;-67
2023/01/19 01:06:15;;;;;;;10.48;7.63;;;;;;;-0.43;100.00;99439.59;697886;28;1226;-67
2023/01/19 01:06:35;;;;;;;10.60;8.17;;;;;;;-0.47;100.00;99438.66;698462;28;1480;-65
2023/01/19 01:06:56;;;;;;;11.23;8.07;;;;;;;-0.46;100.00;99442.94;697785;28;4443;-68
2023/01/19 01:07:16;;;;;;;11.27;8.07;;;;;;;-0.38;100.00;99436.25;698184;28;1440;-66
2023/01/19 01:07:39;;;;;;;11.50;8.30;;;;;;;-0.39;100.00;99438.81;700513;28;1424;-68
2023/01/19 01:07:59;;;;;;;12.05;7.90;;;;;;;-0.37;100.00;99437.16;700866;28;1316;-68
2023/01/19 01:08:20;;;;;;;11.80;7.63;;;;;;;-0.38;100.00;99437.97;699424;28;1079;-66
2023/01/19 01:08:40;;;;;;;11.03;7.50;;;;;;;-0.35;100.00;99441.50;700139;28;1390;-64
2023/01/19 01:09:10;;;;;;;11.75;7.88;;;;;;;-0.38;100.00;99440.53;697201;28;1303;-67
2023/01/19 01:09:31;;;;;;;10.45;7.45;;;;;;;-0.41;100.00;99448.19;697515;28;1257;-65
2023/01/19 01:09:51;;;;;;;10.77;7.67;;;;;;;-0.40;100.00;99442.19;696812;28;4378;-67
2023/01/19 01:10:18;;;;;;;10.20;7.57;;;;;;;-0.39;100.00;99444.81;694400;28;1234;-65
2023/01/19 01:10:40;;;;;;;12.68;8.05;;;;;;;-0.37;100.00;99448.28;695241;28;1116;-67
2023/01/19 01:11:01;;;;;;;11.23;7.93;;;;;;;-0.23;100.00;99445.13;697988;28;1161;-68
2023/01/19 01:11:21;;;;;;;10.80;7.50;;;;;;;-0.29;100.00;99448.44;698577;28;1262;-66
2023/01/19 01:11:42;;;;;;;11.60;7.50;;;;;;;-0.26;100.00;99445.06;698351;28;1277;-66
2023/01/19 01:12:02;;;;;;;10.85;7.63;;;;;;;-0.32;100.00;99447.50;697013;28;1448;-69
2023/01/19 01:12:23;;;;;;;11.75;7.88;;;;;;;-0.38;100.00;99441.41;697947;28;1286;-67
2023/01/19 01:12:44;;;;;;;11.40;7.97;;;;;;;-0.33;100.00;99443.19;697530;28;4516;-65
2023/01/19 01:13:04;;;;;;;10.37;7.43;;;;;;;-0.37;100.00;99443.16;698079;28;1106;-67
2023/01/19 01:13:26;;;;;;;10.43;7.72;;;;;;;-0.41;100.00;99445.63;698290;28;1261;-67
2023/01/19 01:13:46;;;;;;;11.68;8.15;;;;;;;-0.39;100.00;99444.81;698806;28;1206;-67
2023/01/19 01:14:07;;;;;;;11.30;7.63;;;;;;;-0.40;100.00;99445.66;700308;28;1464;-66
2023/01/19 01:14:28;;;;;;;11.45;7.63;;;;;;;-0.30;100.00;99443.28;700820;28;1324;-66
2023/01/19 01:14:48;;;;;;;10.98;7.50;;;;;;;-0.13;100.00;99457.28;701444;28;1221;-67
2023/01/19 01:15:11;;;;;;;11.23;8.00;;;;;;;-0.24;100.00;99446.81;699708;28;1025;-68
2023/01/19 01:15:32;;;;;;;9.75;7.57;;;;;;;-0.21;100.00;99453.72;700625;28;1396;-67
2023/01/19 01:15:53;;;;;;;11.87;7.53;;;;;;;-0.27;100.00;99451.88;700130;28;4446;-67
2023/01/19 01:16:15;;;;;;;11.68;7.50;;;;;;;-0.32;100.00;99450.94;699156;28;3957;-68
2023/01/19 01:16:35;;;;;;;12.48;7.72;;;;;;;-0.36;100.00;99449.13;697766;28;1291;-67
2023/01/19 01:16:55;;;;;;;13.67;7.77;;;;;;;-0.30;100.00;99449.28;698897;28;1914;-66
2023/01/19 01:17:16;;;;;;;11.60;7.80;;;;;;;-0.29;100.00;99448.44;698423;28;1170;-67
2023/01/19 01:17:37;;;;;;;12.20;7.60;;;;;;;-0.33;100.00;99440.63;698524;28;1127;-68
2023/01/19 01:17:57;;;;;;;10.70;7.75;;;;;;;-0.37;100.00;99448.28;697773;28;1388;-68
2023/01/19 01:18:18;;;;;;;12.23;8.13;;;;;;;-0.39;100.00;99444.81;698707;28;1419;-68
2023/01/19 01:18:38;;;;;;;12.50;8.10;;;;;;;-0.42;100.00;99444.75;699774;28;4593;-68
2023/01/19 01:18:58;;;;;;;12.23;8.00;;;;;;;-0.41;100.00;99453.34;698991;28;1157;-67
2023/01/19 01:19:19;;;;;;;12.07;8.00;;;;;;;-0.40;100.00;99449.91;701337;28;1337;-66
2023/01/19 01:19:40;;;;;;;12.15;8.05;;;;;;;-0.45;100.00;99449.81;700294;28;1236;-66
2023/01/19 01:20:01;;;;;;;11.30;8.15;;;;;;;-0.44;100.00;99443.88;699938;28;1261;-72
2023/01/19 01:20:25;;;;;;;11.73;7.80;;;;;;;-0.46;100.00;99447.22;700383;28;1233;-67
2023/01/19 01:20:46;;;;;;;13.30;7.72;;;;;;;-0.50;100.00;99455.72;699951;28;1297;-67
2023/01/19 01:21:07;;;;;;;13.50;7.70;;;;;;;-0.48;100.00;99454.06;699372;28;1063;-67
2023/01/19 01:21:27;;;;;;;11.50;7.90;;;;;;;-0.53;100.00;99454.81;700890;28;1245;-68
2023/01/19 01:21:47;;;;;;;11.00;7.50;;;;;;;-0.54;100.00;99452.19;696816;28;4386;-66
2023/01/19 01:22:09;;;;;;;11.37;8.00;;;;;;;-0.56;100.00;99461.59;698256;28;1083;-67
2023/01/19 01:22:29;;;;;;;10.60;7.93;;;;;;;-0.59;100.00;99451.25;697640;28;1332;-67
2023/01/19 01:22:54;;;;;;;11.98;8.27;;;;;;;-0.58;100.00;99453.84;698297;28;1336;-66
2023/01/19 01:23:15;;;;;;;11.13;7.53;;;;;;;-0.61;100.00;99455.47;698194;28;1336;-68
2023/01/19 01:23:35;;;;;;;10.48;7.95;;;;;;;-0.62;100.00;99452.06;696485;28;1423;-68
2023/01/19 01:23:55;;;;;;;10.67;8.23;;;;;;;-0.56;100.00;99461.59;695459;28;1309;-68
2023/01/19 01:24:17;;;;;;;10.55;7.65;;;;;;;-0.54;100.00;99454.75;694146;28;1298;-66
2023/01/19 01:24:37;;;;;;;9.65;7.30;;;;;;;-0.36;100.00;99456.84;695208;28;4305;-66
2023/01/19 01:24:58;;;;;;;10.43;7.40;;;;;;;-0.27;100.00;99451.03;691282;28;1319;-65
2023/01/19 01:25:21;;;;;;;11.97;7.50;;;;;;;-0.14;100.00;99455.56;690234;28;1192;-67
2023/01/19 01:25:42;;;;;;;11.27;7.57;;;;;;;-0.17;100.00;99455.50;692886;28;1179;-68
2023/01/19 01:26:02;;;;;;;11.63;7.95;;;;;;;-0.16;100.00;99464.09;692152;28;1349;-68
2023/01/19 01:26:23;;;;;;;11.70;8.10;;;;;;;-0.22;100.00;99460.56;692001;28;1191;-66
2023/01/19 01:26:43;;;;;;;11.70;8.20;;;;;;;-0.28;100.00;99464.72;693662;28;1219;-67
2023/01/19 01:27:04;;;;;;;11.55;7.95;;;;;;;-0.28;100.00;99463.00;694455;28;1202;-68
2023/01/19 01:27:24;;;;;;;11.02;7.65;;;;;;;-0.31;100.00;99464.66;697137;28;1345;-67
2023/01/19 01:27:45;;;;;;;9.80;7.40;;;;;;;-0.36;100.00;99461.97;696723;28;4422;-67
2023/01/19 01:28:07;;;;;;;10.18;7.53;;;;;;;-0.40;100.00;99466.19;700161;28;1157;-67
2023/01/19 01:28:27;;;;;;;11.27;7.72;;;;;;;-0.39;100.00;99467.06;700350;28;1308;-68
2023/01/19 01:28:48;;;;;;;10.32;7.88;;;;;;;-0.43;100.00;99471.28;700995;28;1265;-66
2023/01/19 01:29:08;;;;;;;11.03;7.80;;;;;;;-0.46;100.00;99471.19;700719;28;1118;-68
2023/01/19 01:29:28;;;;;;;11.40;7.63;;;;;;;-0.50;100.00;99468.53;697937;28;1515;-68
2023/01/19 01:29:49;;;;;;;12.37;8.40;;;;;;;-0.53;100.00;99464.19;697338;28;1269;-68
2023/01/19 01:30:12;;;;;;;11.47;7.77;;;;;;;-0.55;100.00;99468.47;697068;28;1125;-68
2023/01/19 01:30:32;;;;;;;11.27;8.20;;;;;;;-0.57;100.00;99470.09;694973;28;1428;-67
2023/01/19 01:30:54;;;;;;;11.07;8.00;;;;;;;-0.57;100.00;99464.97;695010;28;4502;-68
2023/01/19 01:31:15;;;;;;;11.30;8.10;;;;;;;-0.54;100.00;99467.59;695803;28;1274;-67
2023/01/19 01:31:35;;;;;;;10.83;7.83;;;;;;;-0.45;100.00;99480.63;695622;28;1472;-65
2023/01/19 01:31:55;;;;;;;11.00;7.50;;;;;;;-0.23;100.00;99475.94;689998;28;1318;-66
2023/01/19 01:32:16;;;;;;;11.47;7.60;;;;;;;-0.13;100.00;99474.41;689918;28;1478;-67
2023/01/19 01:32:36;;;;;;;12.02;7.57;;;;;;;-0.16;100.00;99475.22;692785;28;1306;-66
2023/01/19 01:32:56;;;;;;;10.60;7.37;;;;;;;-0.16;100.00;99467.53;692785;28;1472;-68
2023/01/19 01:33:17;;;;;;;11.50;7.60;;;;;;;-0.21;100.00;99479.41;692872;28;1615;-68
2023/01/19 01:33:37;;;;;;;12.03;7.90;;;;;;;-0.17;100.00;99470.91;695389;28;4330;-67
2023/01/19 01:33:57;;;;;;;11.57;8.10;;;;;;;-0.20;100.00;99476.84;700563;28;1474;-68
2023/01/19 01:34:18;;;;;;;10.63;7.88;;;;;;;-0.23;100.00;99478.50;701018;28;1145;-65
2023/01/19 01:34:39;;;;;;;10.83;7.63;;;;;;;-0.20;100.00;99471.72;700531;28;1106;-66
2023/01/19 01:34:59;;;;;;;11.17;7.43;;;;;;;-0.20;100.00;99470.88;697726;28;1326;-67
2023/01/19 01:35:20;;;;;;;12.27;8.07;;;;;;;-0.27;100.00;99471.59;694472;28;1333;-65
2023/01/19 01:35:40;;;;;;;11.83;8.00;;;;;;;-0.24;100.00;99474.22;694602;28;1095;-67
2023/01/19 01:36:00;;;;;;;11.00;8.15;;;;;;;-0.28;100.00;99470.69;695145;28;1262;-67
2023/01/19 01:36:21;;;;;;;10.93;7.90;;;;;;;-0.25;100.00;99467.31;694214;28;1233;-67
2023/01/19 01:36:41;;;;;;;10.63;7.70;;;;;;;-0.21;100.00;99480.28;694749;28;4341;-67
2023/01/19 01:37:02;;;;;;;11.73;7.63;;;;;;;-0.16;100.00;99471.81;697521;28;1894;-67
2023/01/19 01:37:22;;;;;;;11.00;7.67;;;;;;;-0.22;100.00;99480.25;699775;28;1371;-67
2023/01/19 01:37:43;;;;;;;10.87;7.40;;;;;;;-0.27;100.00;99476.72;700910;28;1447;-67
2023/01/19 01:38:03;;;;;;;10.43;7.40;;;;;;;-0.28;100.00;99473.28;700841;28;1130;-67
2023/01/19 01:38:24;;;;;;;11.02;7.95;;;;;;;-0.30;100.00;99474.94;701188;28;1319;-67
2023/01/19 01:38:44;;;;;;;12.10;8.23;;;;;;;-0.31;100.00;99480.06;700961;28;5254;-66
2023/01/19 01:39:04;;;;;;;10.23;7.47;;;;;;;-0.36;100.00;99470.56;700171;28;1149;-67
2023/01/19 01:39:25;;;;;;;11.00;7.77;;;;;;;-0.39;100.00;99470.50;697982;28;1335;-66
2023/01/19 01:39:45;;;;;;;10.98;7.85;;;;;;;-0.40;100.00;99468.78;698951;28;4400;-67
2023/01/19 01:40:09;;;;;;;9.57;7.33;;;;;;;-0.43;100.00;99476.41;698294;28;1106;-67
2023/01/19 01:40:29;;;;;;;10.55;7.40;;;;;;;-0.40;100.00;99473.03;698107;28;1364;-67